createdAt,value
2023-03-24T00:02:14.009Z,95694.78
2023-03-24T00:04:40.344Z,95700.84
2023-03-24T00:07:06.679Z,95709.88
2023-03-24T00:09:32.996Z,95704.88
2023-03-24T00:11:59.288Z,95718.25
2023-03-24T00:14:25.583Z,95703.63
2023-03-24T00:16:51.907Z,95700.81
2023-03-24T00:19:18.220Z,95711.69
2023-03-24T00:21:44.518Z,95705.50
2023-03-24T00:24:10.879Z,95699.91
2023-03-24T00:26:37.174Z,95709.69
2023-03-24T00:29:03.480Z,95709.53
2023-03-24T00:31:29.814Z,95704.88
2023-03-24T00:33:56.186Z,95706.91
2023-03-24T00:36:22.484Z,95709.25
2023-03-24T00:38:48.801Z,95706.59
2023-03-24T00:41:15.092Z,95706.13
2023-03-24T00:43:41.373Z,95696.63
2023-03-24T00:46:07.700Z,95688.69
2023-03-24T00:48:34.009Z,95681.84
2023-03-24T00:51:00.319Z,95677.66
2023-03-24T00:53:36.980Z,95669.88
2023-03-24T00:56:03.271Z,95670.97
2023-03-24T00:58:29.602Z,95662.25
2023-03-24T01:00:55.949Z,95657.13
2023-03-24T01:03:22.271Z,95647.34
2023-03-24T01:05:48.618Z,95632.38
2023-03-24T01:08:14.930Z,95625.31
2023-03-24T01:10:41.226Z,95625.06
2023-03-24T01:13:07.552Z,95629.41
2023-03-24T01:15:33.948Z,95628.16
2023-03-24T01:18:00.312Z,95643.31
2023-03-24T01:20:26.680Z,95640.66
2023-03-24T01:22:52.982Z,95618.59
2023-03-24T01:25:19.278Z,95611.72
2023-03-24T01:27:45.655Z,95603.91
2023-03-24T01:30:11.971Z,95623.25
2023-03-24T01:32:38.333Z,95615.50
2023-03-24T01:35:04.653Z,95612.53
2023-03-24T01:37:30.963Z,95613.78
2023-03-24T01:39:57.273Z,95611.16
2023-03-24T01:42:23.589Z,95615.66
2023-03-24T01:44:49.890Z,95612.56
2023-03-24T01:47:16.202Z,95605.41
2023-03-24T01:49:42.508Z,95596.69
2023-03-24T01:52:08.797Z,95600.44
2023-03-24T01:54:35.091Z,95615.19
2023-03-24T01:57:01.484Z,95609.13
2023-03-24T01:59:27.811Z,95604.00
2023-03-24T02:01:54.113Z,95611.00
2023-03-24T02:04:20.480Z,95608.94
2023-03-24T02:06:46.798Z,95605.69
2023-03-24T02:09:13.102Z,95613.47
2023-03-24T02:11:39.422Z,95621.22
2023-03-24T02:14:05.715Z,95603.97
2023-03-24T02:16:32.092Z,95587.97
2023-03-24T02:18:58.451Z,95598.81
2023-03-24T02:21:24.753Z,95598.97
2023-03-24T02:23:51.053Z,95594.16
2023-03-24T02:26:17.367Z,95589.16
2023-03-24T02:28:43.676Z,95595.06
2023-03-24T02:31:10.028Z,95594.44
2023-03-24T02:33:36.430Z,95588.53
2023-03-24T02:36:02.765Z,95589.16
2023-03-24T02:38:29.103Z,95594.78
2023-03-24T02:40:55.418Z,95588.56
2023-03-24T02:43:21.726Z,95585.91
2023-03-24T02:45:48.080Z,95580.81
2023-03-24T02:48:14.485Z,95585.31
2023-03-24T02:50:40.808Z,95588.00
2023-03-24T02:53:07.112Z,95592.63
2023-03-24T02:55:33.433Z,95596.22
2023-03-24T02:57:59.732Z,95596.38
2023-03-24T03:00:26.026Z,95595.31
2023-03-24T03:02:52.375Z,95604.16
2023-03-24T03:05:18.694Z,95601.06
2023-03-24T03:07:44.986Z,95593.91
2023-03-24T03:10:11.303Z,95588.00
2023-03-24T03:12:37.601Z,95584.25
2023-03-24T03:15:05.013Z,95573.41
2023-03-24T03:17:31.356Z,95564.06
2023-03-24T03:19:57.654Z,95569.66
2023-03-24T03:22:23.940Z,95566.41
2023-03-24T03:24:50.258Z,95570.91
2023-03-24T03:27:16.582Z,95564.69
2023-03-24T03:29:42.890Z,95561.91
2023-03-24T03:32:09.208Z,95568.75
2023-03-24T03:34:35.497Z,95568.88
2023-03-24T03:37:01.794Z,95569.66
2023-03-24T03:39:28.148Z,95582.72
2023-03-24T03:41:54.439Z,95585.78
2023-03-24T03:44:20.744Z,95591.06
2023-03-24T03:46:47.056Z,95591.66
2023-03-24T03:49:13.348Z,95589.00
2023-03-24T03:51:39.651Z,95603.78
2023-03-24T03:54:05.961Z,95600.34
2023-03-24T03:56:32.287Z,95593.81
2023-03-24T03:58:58.641Z,95602.84
2023-03-24T04:01:24.967Z,95596.00
2023-03-24T04:03:51.323Z,95607.13
2023-03-24T04:06:17.704Z,95607.47
2023-03-24T04:08:44.025Z,95599.19
2023-03-24T04:11:10.328Z,95597.84
2023-03-24T04:13:36.625Z,95599.41
2023-03-24T04:16:02.977Z,95605.94
2023-03-24T04:18:29.274Z,95603.44
2023-03-24T04:20:55.568Z,95607.50
2023-03-24T04:23:21.884Z,95599.38
2023-03-24T04:25:48.185Z,95596.91
2023-03-24T04:28:14.568Z,95599.41
2023-03-24T04:30:40.904Z,95607.00
2023-03-24T04:33:07.266Z,95604.19
2023-03-24T04:35:33.575Z,95614.91
2023-03-24T04:37:59.896Z,95613.19
2023-03-24T04:40:26.245Z,95598.09
2023-03-24T04:42:52.689Z,95603.38
2023-03-24T04:45:19.152Z,95606.81
2023-03-24T04:47:45.517Z,95613.97
2023-03-24T04:50:11.841Z,95621.38
2023-03-24T04:52:38.155Z,95634.19
2023-03-24T04:55:04.449Z,95633.88
2023-03-24T04:57:30.746Z,95632.28
2023-03-24T04:59:57.057Z,95636.53
2023-03-24T05:02:23.372Z,95626.88
2023-03-24T05:04:49.679Z,95644.06
2023-03-24T05:07:16.004Z,95642.94
2023-03-24T05:09:42.310Z,95635.56
2023-03-24T05:12:08.610Z,95636.91
2023-03-24T05:14:34.933Z,95639.53
2023-03-24T05:17:01.255Z,95651.75
2023-03-24T05:19:27.575Z,95653.38
2023-03-24T05:21:55.818Z,95655.72
2023-03-24T05:24:22.119Z,95655.75
2023-03-24T05:26:48.437Z,95663.78
2023-03-24T05:29:14.772Z,95663.53
2023-03-24T05:31:41.089Z,95659.28
2023-03-24T05:34:07.408Z,95667.09
2023-03-24T05:36:33.750Z,95680.44
2023-03-24T05:39:00.098Z,95678.09
2023-03-24T05:41:26.444Z,95670.06
2023-03-24T05:43:52.795Z,95677.88
2023-03-24T05:46:19.113Z,95677.81
2023-03-24T05:48:45.573Z,95688.13
2023-03-24T05:51:11.965Z,95704.69
2023-03-24T05:53:38.316Z,95706.50
2023-03-24T05:56:04.646Z,95710.69
2023-03-24T05:58:30.973Z,95705.69
2023-03-24T06:00:57.279Z,95709.03
2023-03-24T06:03:23.779Z,95712.75
2023-03-24T06:05:50.159Z,95725.56
2023-03-24T06:08:16.459Z,95738.13
2023-03-24T06:10:42.758Z,95741.34
2023-03-24T06:13:09.272Z,95748.88
2023-03-24T06:15:35.773Z,95750.84
2023-03-24T06:18:02.120Z,95751.84
2023-03-24T06:20:28.483Z,95756.22
2023-03-24T06:22:54.812Z,95745.25
2023-03-24T06:25:21.112Z,95755.19
2023-03-24T06:27:47.449Z,95762.69
2023-03-24T06:30:13.750Z,95765.66
2023-03-24T06:32:40.117Z,95760.31
2023-03-24T06:35:06.487Z,95780.22
2023-03-24T06:37:32.777Z,95771.94
2023-03-24T06:39:59.086Z,95715.28
2023-03-24T06:42:25.411Z,95726.75
2023-03-24T06:44:51.705Z,95727.75
2023-03-24T06:47:18.004Z,95733.13
2023-03-24T06:49:44.345Z,95745.50
2023-03-24T06:52:13.776Z,95740.06
2023-03-24T06:54:41.684Z,95740.50
2023-03-24T06:57:08.556Z,95741.94
2023-03-24T06:59:34.893Z,95735.66
2023-03-24T07:02:01.305Z,95753.44
2023-03-24T07:04:27.661Z,95733.78
2023-03-24T07:07:10.880Z,95739.94
2023-03-24T07:09:40.258Z,95737.72
2023-03-24T07:12:06.569Z,95734.03
2023-03-24T07:14:32.864Z,95743.31
2023-03-24T07:16:59.204Z,95734.84
2023-03-24T07:19:25.497Z,95734.72
2023-03-24T07:21:52.340Z,95725.91
2023-03-24T07:24:18.951Z,95741.16
2023-03-24T07:26:45.256Z,95744.84
2023-03-24T07:29:11.565Z,95739.22
2023-03-24T07:31:37.937Z,95741.28
2023-03-24T07:34:04.322Z,95752.25
2023-03-24T07:36:30.801Z,95748.56
2023-03-24T07:38:57.154Z,95751.25
2023-03-24T07:41:23.447Z,95747.94
2023-03-24T07:43:49.761Z,95762.22
2023-03-24T07:46:16.085Z,95764.28
2023-03-24T07:48:42.448Z,95762.91
2023-03-24T07:51:08.757Z,95764.84
2023-03-24T07:53:35.143Z,95769.41
2023-03-24T07:56:01.466Z,95776.75
2023-03-24T07:58:27.877Z,95768.53
2023-03-24T08:00:57.136Z,95782.00
2023-03-24T08:03:23.604Z,95780.97
2023-03-24T08:05:50.371Z,95784.09
2023-03-24T08:08:17.015Z,95782.50
2023-03-24T08:10:43.331Z,95780.25
2023-03-24T08:13:09.631Z,95781.50
2023-03-24T08:15:35.945Z,95774.09
2023-03-24T08:18:02.270Z,95775.06
2023-03-24T08:20:28.603Z,95783.59
2023-03-24T08:22:54.942Z,95780.56
2023-03-24T08:25:21.264Z,95779.69
2023-03-24T08:27:47.606Z,95779.34
2023-03-24T08:30:13.934Z,95774.13
2023-03-24T08:32:40.270Z,95776.31
2023-03-24T08:35:06.590Z,95775.81
2023-03-24T08:37:32.917Z,95767.09
2023-03-24T08:39:59.233Z,95778.91
2023-03-24T08:42:25.564Z,95784.38
2023-03-24T08:44:51.891Z,95780.56
2023-03-24T08:47:18.209Z,95783.22
2023-03-24T08:49:44.521Z,95773.75
2023-03-24T08:52:10.843Z,95765.75
2023-03-24T08:54:37.147Z,95767.72
2023-03-24T08:57:03.495Z,95764.59
2023-03-24T08:59:29.864Z,95753.22
2023-03-24T09:01:56.191Z,95758.53
2023-03-24T09:04:22.510Z,95755.91
2023-03-24T09:06:48.864Z,95750.28
2023-03-24T09:09:15.160Z,95749.97
2023-03-24T09:11:41.490Z,95743.97
2023-03-24T09:14:07.827Z,95740.75
2023-03-24T09:16:34.186Z,95733.38
2023-03-24T09:19:00.525Z,95744.69
2023-03-24T09:21:26.847Z,95745.59
2023-03-24T09:23:53.148Z,95736.06
2023-03-24T09:26:19.456Z,95741.72
2023-03-24T09:28:45.779Z,95731.81
2023-03-24T09:31:12.094Z,95734.84
2023-03-24T09:33:38.408Z,95722.22
2023-03-24T09:36:04.791Z,95731.41
2023-03-24T09:38:31.145Z,95727.06
2023-03-24T09:40:57.515Z,95719.28
2023-03-24T09:43:23.865Z,95728.97
2023-03-24T09:45:50.339Z,95721.84
2023-03-24T09:48:16.876Z,95729.44
2023-03-24T09:50:43.201Z,95718.59
2023-03-24T09:53:09.504Z,95725.75
2023-03-24T09:55:35.807Z,95721.75
2023-03-24T09:58:02.118Z,95715.31
2023-03-24T10:00:28.449Z,95722.16
2023-03-24T10:02:57.414Z,95719.50
2023-03-24T10:05:23.914Z,95717.28
2023-03-24T10:07:50.226Z,95720.06
2023-03-24T10:10:16.523Z,95716.03
2023-03-24T10:12:42.877Z,95718.31
2023-03-24T10:15:09.874Z,95738.50
2023-03-24T10:17:36.245Z,95731.06
2023-03-24T10:20:02.601Z,95745.16
2023-03-24T10:22:28.898Z,95755.34
2023-03-24T10:24:55.212Z,95760.53
2023-03-24T10:27:21.536Z,95771.50
2023-03-24T10:29:47.839Z,95781.84
2023-03-24T10:32:14.144Z,95789.94
2023-03-24T10:34:40.463Z,95830.25
2023-03-24T10:37:06.768Z,95796.50
2023-03-24T10:39:44.003Z,95801.31
2023-03-24T10:42:10.826Z,95810.56
2023-03-24T10:44:37.120Z,95817.97
2023-03-24T10:47:03.413Z,95817.00
2023-03-24T10:49:29.766Z,95813.00
2023-03-24T10:51:56.067Z,95828.94
2023-03-24T10:54:22.365Z,95831.59
2023-03-24T10:56:48.718Z,95820.66
2023-03-24T10:59:15.063Z,95818.44
2023-03-24T11:01:41.418Z,95829.75
2023-03-24T11:04:07.776Z,95826.63
2023-03-24T11:06:34.106Z,95835.56
2023-03-24T11:09:00.801Z,95835.72
2023-03-24T11:11:27.233Z,95842.09
2023-03-24T11:13:53.531Z,95848.81
2023-03-24T11:16:19.889Z,95853.25
2023-03-24T11:18:46.307Z,95849.19
2023-03-24T11:21:12.610Z,95828.47
2023-03-24T11:23:39.005Z,95829.28
2023-03-24T11:26:05.343Z,95835.50
2023-03-24T11:28:31.645Z,95816.41
2023-03-24T11:30:57.989Z,95816.94
2023-03-24T11:33:35.728Z,95816.09
2023-03-24T11:36:05.851Z,95812.06
2023-03-24T11:38:32.536Z,95812.94
2023-03-24T11:40:58.849Z,95826.91
2023-03-24T11:43:25.143Z,95822.84
2023-03-24T11:45:51.855Z,95825.66
2023-03-24T11:48:18.285Z,95824.94
2023-03-24T11:50:44.586Z,95814.03
2023-03-24T11:53:10.904Z,95824.50
2023-03-24T11:55:37.220Z,95824.44
2023-03-24T11:58:03.530Z,95826.88
2023-03-24T12:00:30.886Z,95837.00
2023-03-24T12:02:58.055Z,95843.81
2023-03-24T12:05:24.477Z,95840.63
2023-03-24T12:07:50.836Z,95839.50
2023-03-24T12:10:17.127Z,95847.06
2023-03-24T12:12:43.420Z,95850.84
2023-03-24T12:15:20.735Z,95849.75
2023-03-24T12:17:53.441Z,95840.84
2023-03-24T12:20:19.806Z,95846.03
2023-03-24T12:22:46.155Z,95832.06
2023-03-24T12:25:12.476Z,95841.81
2023-03-24T12:27:38.802Z,95848.91
2023-03-24T12:30:05.120Z,95846.28
2023-03-24T12:32:31.461Z,95847.34
2023-03-24T12:34:58.112Z,95847.75
2023-03-24T12:37:24.470Z,95855.16
2023-03-24T12:39:50.755Z,95853.50
2023-03-24T12:42:17.083Z,95846.81
2023-03-24T12:44:43.386Z,95833.00
2023-03-24T12:47:09.685Z,95828.97
2023-03-24T12:49:36.013Z,95812.16
2023-03-24T12:52:02.319Z,95803.88
2023-03-24T12:54:28.610Z,95795.75
2023-03-24T12:56:54.953Z,95799.13
2023-03-24T12:59:21.264Z,95796.56
2023-03-24T13:01:47.561Z,95808.97
2023-03-24T13:04:13.880Z,95814.53
2023-03-24T13:06:40.186Z,95817.13
2023-03-24T13:09:06.490Z,95820.97
2023-03-24T13:11:33.520Z,95823.13
2023-03-24T13:13:59.894Z,95827.78
2023-03-24T13:16:26.201Z,95826.47
2023-03-24T13:18:52.558Z,95803.75
2023-03-24T13:21:18.846Z,95818.69
2023-03-24T13:23:45.133Z,95822.75
2023-03-24T13:26:11.513Z,95831.53
2023-03-24T13:28:37.852Z,95828.56
2023-03-24T13:31:04.152Z,95823.75
2023-03-24T13:33:30.473Z,95831.88
2023-03-24T13:35:56.963Z,95828.22
2023-03-24T13:38:23.537Z,95833.44
2023-03-24T13:40:49.854Z,95844.50
2023-03-24T13:43:16.181Z,95853.38
2023-03-24T13:45:42.528Z,95843.00
2023-03-24T13:48:08.966Z,95839.66
2023-03-24T13:50:35.298Z,95831.16
2023-03-24T13:53:01.597Z,95825.56
2023-03-24T13:55:27.974Z,95824.00
2023-03-24T13:57:54.288Z,95819.63
2023-03-24T14:00:20.602Z,95822.66
2023-03-24T14:02:47.121Z,95828.50
2023-03-24T14:05:13.535Z,95826.28
2023-03-24T14:07:39.851Z,95826.69
2023-03-24T14:10:06.170Z,95824.34
2023-03-24T14:12:32.843Z,95834.34
2023-03-24T14:14:59.186Z,95824.25
2023-03-24T14:17:25.498Z,95816.66
2023-03-24T14:19:51.845Z,95828.44
2023-03-24T14:22:18.154Z,95821.47
2023-03-24T14:24:44.472Z,95832.53
2023-03-24T14:27:10.771Z,95842.84
2023-03-24T14:29:37.060Z,95846.88
2023-03-24T14:32:17.168Z,95861.69
2023-03-24T14:34:45.908Z,95860.31
2023-03-24T14:37:12.229Z,95863.34
2023-03-24T14:39:38.519Z,95878.63
2023-03-24T14:42:04.814Z,95851.34
2023-03-24T14:44:31.114Z,95860.84
2023-03-24T14:46:57.482Z,95870.13
2023-03-24T14:49:23.804Z,95868.91
2023-03-24T14:51:50.120Z,95867.47
2023-03-24T14:54:16.463Z,95864.63
2023-03-24T14:56:42.847Z,95870.94
2023-03-24T14:59:09.191Z,95873.16
2023-03-24T15:01:35.532Z,95869.56
2023-03-24T15:04:01.918Z,95856.75
2023-03-24T15:06:28.272Z,95848.25
2023-03-24T15:08:54.653Z,95847.28
2023-03-24T15:11:20.953Z,95847.59
2023-03-24T15:13:47.273Z,95840.66
2023-03-24T15:16:13.572Z,95848.66
2023-03-24T15:18:46.866Z,95859.78
2023-03-24T15:21:24.385Z,95861.03
2023-03-24T15:23:50.677Z,95851.09
2023-03-24T15:26:16.969Z,95847.16
2023-03-24T15:28:43.307Z,95832.06
2023-03-24T15:31:09.633Z,95830.00
2023-03-24T15:33:35.956Z,95843.03
2023-03-24T15:36:02.435Z,95849.59
2023-03-24T15:38:28.867Z,95824.84
2023-03-24T15:40:55.167Z,95813.16
2023-03-24T15:43:21.529Z,95807.81
2023-03-24T15:45:51.094Z,95822.31
2023-03-24T15:48:21.704Z,95841.16
2023-03-24T15:50:48.279Z,95845.09
2023-03-24T15:53:14.659Z,95832.06
2023-03-24T15:55:40.972Z,95835.38
2023-03-24T15:58:07.263Z,95836.94
2023-03-24T16:00:33.555Z,95835.63
2023-03-24T16:02:59.951Z,95845.63
2023-03-24T16:05:26.277Z,95847.44
2023-03-24T16:07:52.577Z,95840.63
2023-03-24T16:10:18.903Z,95847.66
2023-03-24T16:12:45.204Z,95866.81
2023-03-24T16:15:11.524Z,95860.59
2023-03-24T16:17:37.877Z,95857.69
2023-03-24T16:20:04.177Z,95862.38
2023-03-24T16:22:30.474Z,95867.91
2023-03-24T16:24:56.794Z,95874.91
2023-03-24T16:27:23.184Z,95878.03
2023-03-24T16:29:49.512Z,95897.34
2023-03-24T16:32:15.831Z,95884.66
2023-03-24T16:34:42.129Z,95882.09
2023-03-24T16:37:08.432Z,95900.06
2023-03-24T16:39:34.787Z,95921.56
2023-03-24T16:42:01.096Z,95908.97
2023-03-24T16:44:27.396Z,95895.47
2023-03-24T16:46:53.989Z,95893.34
2023-03-24T16:49:20.514Z,95868.59
2023-03-24T16:51:46.864Z,95885.16
2023-03-24T16:54:13.190Z,95892.88
2023-03-24T16:56:39.577Z,95874.16
2023-03-24T16:59:05.933Z,95881.59
2023-03-24T17:01:32.274Z,95899.41
2023-03-24T17:03:58.601Z,95872.69
2023-03-24T17:06:24.976Z,95882.81
2023-03-24T17:08:51.297Z,95886.22
2023-03-24T17:11:17.596Z,95893.56
2023-03-24T17:13:43.895Z,95887.56
2023-03-24T17:16:10.247Z,95895.59
2023-03-24T17:18:36.551Z,95891.47
2023-03-24T17:21:02.848Z,95896.56
2023-03-24T17:23:29.195Z,95906.66
2023-03-24T17:25:55.504Z,95897.53
2023-03-24T17:28:21.795Z,95917.91
2023-03-24T17:30:48.362Z,95921.13
2023-03-24T17:33:14.823Z,95926.50
2023-03-24T17:35:41.183Z,95928.69
2023-03-24T17:38:07.519Z,95928.19
2023-03-24T17:40:33.816Z,95937.31
2023-03-24T17:43:00.123Z,95942.44
2023-03-24T17:45:26.480Z,95958.06
2023-03-24T17:47:52.802Z,95965.50
2023-03-24T17:50:19.175Z,95970.88
2023-03-24T17:52:45.533Z,95961.09
2023-03-24T17:55:11.843Z,95965.22
2023-03-24T17:57:38.210Z,95958.56
2023-03-24T18:00:04.530Z,95957.91
2023-03-24T18:02:30.868Z,95968.78
2023-03-24T18:04:57.199Z,95973.78
2023-03-24T18:07:23.520Z,95972.72
2023-03-24T18:09:49.853Z,95979.34
2023-03-24T18:12:16.126Z,95981.38
2023-03-24T18:14:42.421Z,95975.19
2023-03-24T18:17:08.807Z,95990.94
2023-03-24T18:19:35.197Z,95992.84
2023-03-24T18:22:01.527Z,95999.34
2023-03-24T18:24:27.835Z,95993.72
2023-03-24T18:26:54.143Z,96000.34
2023-03-24T18:29:20.459Z,95998.22
2023-03-24T18:31:46.823Z,95992.50
2023-03-24T18:34:13.126Z,96013.00
2023-03-24T18:36:39.448Z,96009.88
2023-03-24T18:39:05.747Z,96005.28
2023-03-24T18:41:32.053Z,96012.25
2023-03-24T18:43:58.388Z,96005.75
2023-03-24T18:46:24.726Z,96000.91
2023-03-24T18:48:51.082Z,96013.06
2023-03-24T18:51:17.442Z,96009.16
2023-03-24T18:53:43.739Z,96007.00
2023-03-24T18:56:10.041Z,96015.06
2023-03-24T18:58:36.458Z,96013.09
2023-03-24T19:01:02.866Z,96019.03
2023-03-24T19:03:29.372Z,96021.59
2023-03-24T19:05:55.739Z,96026.38
2023-03-24T19:08:22.039Z,96034.97
2023-03-24T19:10:48.334Z,96035.25
2023-03-24T19:13:14.671Z,96036.53
2023-03-24T19:15:40.990Z,96043.94
2023-03-24T19:18:07.338Z,96052.06
2023-03-24T19:20:33.711Z,96050.31
2023-03-24T19:23:00.007Z,96049.78
2023-03-24T19:25:26.317Z,96044.22
2023-03-24T19:27:52.628Z,96049.47
2023-03-24T19:30:18.930Z,96048.63
2023-03-24T19:32:45.269Z,96053.47
2023-03-24T19:35:11.602Z,96053.56
2023-03-24T19:37:37.910Z,96058.03
2023-03-24T19:40:04.226Z,96061.56
2023-03-24T19:42:32.140Z,96059.56
2023-03-24T19:44:59.624Z,96059.56
2023-03-24T19:47:25.931Z,96067.28
2023-03-24T19:49:52.276Z,96062.75
2023-03-24T19:52:18.577Z,96069.13
2023-03-24T19:54:44.871Z,96062.19
2023-03-24T19:57:11.297Z,96058.00
2023-03-24T19:59:37.661Z,96058.69
2023-03-24T20:02:03.991Z,96056.63
2023-03-24T20:04:30.365Z,96053.47
2023-03-24T20:06:56.682Z,96055.75
2023-03-24T20:09:23.036Z,96069.94
2023-03-24T20:11:49.380Z,96062.00
2023-03-24T20:14:15.680Z,96061.56
2023-03-24T20:16:42.016Z,96054.97
2023-03-24T20:19:08.381Z,96066.69
2023-03-24T20:21:34.683Z,96056.06
2023-03-24T20:24:00.978Z,96057.50
2023-03-24T20:26:27.289Z,96040.88
2023-03-24T20:28:53.722Z,96053.06
2023-03-24T20:31:20.069Z,96056.53
2023-03-24T20:33:46.426Z,96055.13
2023-03-24T20:36:12.782Z,96053.28
2023-03-24T20:38:39.141Z,96061.41
2023-03-24T20:41:05.506Z,96070.25
2023-03-24T20:43:31.847Z,96061.75
2023-03-24T20:45:58.161Z,96065.91
2023-03-24T20:48:24.512Z,96061.91
2023-03-24T20:50:50.818Z,96054.78
2023-03-24T20:53:17.115Z,96054.06
2023-03-24T20:55:43.439Z,96058.00
2023-03-24T20:58:09.737Z,96064.34
2023-03-24T21:00:36.036Z,96056.34
2023-03-24T21:03:02.548Z,96066.69
2023-03-24T21:05:28.907Z,96056.00
2023-03-24T21:07:55.219Z,96069.22
2023-03-24T21:10:21.551Z,96064.63
2023-03-24T21:12:52.749Z,96061.13
2023-03-24T21:15:20.888Z,96073.38
2023-03-24T21:17:47.223Z,96073.38
2023-03-24T21:20:13.549Z,96078.00
2023-03-24T21:22:39.858Z,96076.72
2023-03-24T21:25:06.202Z,96083.16
2023-03-24T21:27:32.498Z,96079.06
2023-03-24T21:29:58.800Z,96074.09
2023-03-24T21:32:25.145Z,96072.72
2023-03-24T21:34:51.445Z,96072.03
2023-03-24T21:37:17.795Z,96078.28
2023-03-24T21:39:44.151Z,96068.63
2023-03-24T21:42:10.458Z,96079.50
2023-03-24T21:44:36.751Z,96079.06
2023-03-24T21:47:03.084Z,96081.56
2023-03-24T21:49:29.404Z,96075.59
2023-03-24T21:51:55.705Z,96060.81
2023-03-24T21:54:22.009Z,96058.59
2023-03-24T21:56:48.371Z,96060.50
2023-03-24T21:59:14.754Z,96056.94
2023-03-24T22:01:41.190Z,96058.28
2023-03-24T22:04:07.542Z,96061.69
2023-03-24T22:06:33.857Z,96063.28
2023-03-24T22:09:00.173Z,96069.88
2023-03-24T22:11:26.469Z,96073.34
2023-03-24T22:13:52.749Z,96100.34
2023-03-24T22:16:19.058Z,96130.81
2023-03-24T22:18:45.350Z,96124.41
2023-03-24T22:21:11.644Z,96125.25
2023-03-24T22:23:38.051Z,96114.78
2023-03-24T22:26:04.414Z,96110.09
2023-03-24T22:28:30.706Z,96094.69
2023-03-24T22:30:57.011Z,96089.69
2023-03-24T22:33:23.302Z,96095.03
2023-03-24T22:35:49.826Z,96104.72
2023-03-24T22:38:16.260Z,96104.38
2023-03-24T22:40:42.552Z,96113.97
2023-03-24T22:43:08.858Z,96116.75
2023-03-24T22:45:35.194Z,96121.59
2023-03-24T22:48:01.538Z,96132.22
2023-03-24T22:50:27.854Z,96116.66
2023-03-24T22:52:54.184Z,96130.81
2023-03-24T22:55:20.469Z,96121.19
2023-03-24T22:57:46.870Z,96135.44
2023-03-24T23:00:13.456Z,96130.19
2023-03-24T23:02:39.867Z,96130.94
2023-03-24T23:05:06.260Z,96129.50
2023-03-24T23:07:32.645Z,96120.06
2023-03-24T23:09:58.938Z,96111.06
2023-03-24T23:12:25.233Z,96126.69
2023-03-24T23:14:51.548Z,96142.56
2023-03-24T23:17:17.849Z,96160.53
2023-03-24T23:19:44.142Z,96183.56
2023-03-24T23:22:10.452Z,96169.38
2023-03-24T23:24:36.757Z,96168.50
2023-03-24T23:27:03.049Z,96168.44
2023-03-24T23:29:29.355Z,96160.78
2023-03-24T23:31:55.705Z,96163.78
2023-03-24T23:34:22.035Z,96163.38
2023-03-24T23:36:48.349Z,96150.84
2023-03-24T23:39:14.649Z,96151.28
2023-03-24T23:41:40.948Z,96142.72
2023-03-24T23:44:07.255Z,96141.66
2023-03-24T23:46:33.579Z,96141.72
2023-03-24T23:48:59.860Z,96139.94
2023-03-24T23:51:26.167Z,96120.84
2023-03-24T23:53:52.476Z,96115.78
2023-03-24T23:56:18.784Z,96107.94
2023-03-24T23:58:45.088Z,96101.41
